createdAt,value
2018-02-15T00:00:29.812Z,19.31
2018-02-15T00:01:38.770Z,19.26
2018-02-15T00:02:47.990Z,19.32
2018-02-15T00:03:56.676Z,19.22
2018-02-15T00:05:05.896Z,19.32
2018-02-15T00:06:15.119Z,19.25
2018-02-15T00:07:23.808Z,19.26
2018-02-15T00:08:33.027Z,19.25
2018-02-15T00:09:41.750Z,19.29
2018-02-15T00:10:50.731Z,19.25
2018-02-15T00:11:59.417Z,19.25
2018-02-15T00:13:08.105Z,19.29
2018-02-15T00:14:16.795Z,19.29
2018-02-15T00:15:25.759Z,19.29
2018-02-15T00:16:34.716Z,19.21
2018-02-15T00:17:43.669Z,19.26
2018-02-15T00:18:52.899Z,19.28
2018-02-15T00:20:01.588Z,19.23
2018-02-15T00:21:10.276Z,19.28
2018-02-15T00:22:19.233Z,19.21
2018-02-15T00:23:27.922Z,19.23
2018-02-15T00:24:36.873Z,19.29
2018-02-15T00:25:45.565Z,19.25
2018-02-15T00:26:54.524Z,19.25
2018-02-15T00:28:03.213Z,19.21
2018-02-15T00:29:11.899Z,19.22
2018-02-15T00:30:21.125Z,19.23
2018-02-15T00:31:30.344Z,19.26
2018-02-15T00:32:39.563Z,19.21
2018-02-15T00:33:48.253Z,19.25
2018-02-15T00:34:57.210Z,19.26
2018-02-15T00:36:06.430Z,19.19
2018-02-15T00:37:15.385Z,19.14
2018-02-15T00:38:24.078Z,19.18
2018-02-15T00:39:33.037Z,19.26
2018-02-15T00:40:41.990Z,19.23
2018-02-15T00:41:50.945Z,19.18
2018-02-15T00:42:59.629Z,19.25
2018-02-15T00:44:08.844Z,19.16
2018-02-15T00:45:17.529Z,19.21
2018-02-15T00:46:26.481Z,19.16
2018-02-15T00:47:35.434Z,19.13
2018-02-15T00:48:44.389Z,19.1
2018-02-15T00:49:53.338Z,19.18
2018-02-15T00:51:02.829Z,19.19
2018-02-15T00:52:11.786Z,19.11
2018-02-15T00:53:21.008Z,19.14
2018-02-15T00:54:29.697Z,19.16
2018-02-15T00:55:38.650Z,19.19
2018-02-15T00:56:47.341Z,19.16
2018-02-15T00:57:56.289Z,19.16
2018-02-15T00:59:04.974Z,19.11
2018-02-15T01:00:14.199Z,19.16
2018-02-15T01:01:23.426Z,19.14
2018-02-15T01:02:32.114Z,19.07
2018-02-15T01:03:41.065Z,19.18
2018-02-15T01:04:49.756Z,19.21
2018-02-15T01:05:58.443Z,19.11
2018-02-15T01:07:07.668Z,19.18
2018-02-15T01:08:16.619Z,19.14
2018-02-15T01:09:25.569Z,19.21
2018-02-15T01:10:34.532Z,19.13
2018-02-15T01:11:43.489Z,19.18
2018-02-15T01:12:52.445Z,19.16
2018-02-15T01:14:01.134Z,19.21
2018-02-15T01:15:10.086Z,19.19
2018-02-15T01:16:18.776Z,19.16
2018-02-15T01:17:27.460Z,19.1
2018-02-15T01:18:36.684Z,19.14
2018-02-15T01:19:45.373Z,19.18
2018-02-15T01:20:54.058Z,19.1
2018-02-15T01:22:03.018Z,19.11
2018-02-15T01:23:11.715Z,19.18
2018-02-15T01:24:20.402Z,19.18
2018-02-15T01:25:29.625Z,19.14
2018-02-15T01:26:38.575Z,19.08
2018-02-15T01:27:47.529Z,19.08
2018-02-15T01:28:56.492Z,19.11
2018-02-15T01:30:05.980Z,19.1
2018-02-15T01:31:14.932Z,19.08
2018-02-15T01:32:24.158Z,19.21
2018-02-15T01:33:32.845Z,19.1
2018-02-15T01:34:41.533Z,19.11
2018-02-15T01:35:50.491Z,19.1
2018-02-15T01:36:59.179Z,19.19
2018-02-15T01:38:08.411Z,19.1
2018-02-15T01:39:17.630Z,19.07
2018-02-15T01:40:26.848Z,19.07
2018-02-15T01:41:35.799Z,19.04
2018-02-15T01:42:44.755Z,19.1
2018-02-15T01:43:53.716Z,19.11
2018-02-15T01:45:02.399Z,19.14
2018-02-15T01:46:11.357Z,19.08
2018-02-15T01:47:20.576Z,19.1
2018-02-15T01:48:29.804Z,19.07
2018-02-15T01:49:39.291Z,18.99
2018-02-15T01:50:48.242Z,19
2018-02-15T01:51:57.196Z,19.04
2018-02-15T01:53:06.147Z,19.1
2018-02-15T01:54:14.836Z,18.98
2018-02-15T01:55:23.793Z,19.18
2018-02-15T01:56:33.014Z,19.08
2018-02-15T01:57:41.703Z,19.1
2018-02-15T01:58:50.388Z,19
2018-02-15T01:59:59.611Z,19.02
2018-02-15T02:01:08.574Z,19.06
2018-02-15T02:02:17.528Z,19.11
2018-02-15T02:03:26.489Z,19.02
2018-02-15T02:04:35.176Z,19.06
2018-02-15T02:05:44.126Z,19.04
2018-02-15T02:06:52.810Z,19.07
2018-02-15T02:08:01.497Z,19.02
2018-02-15T02:09:10.194Z,19.06
2018-02-15T02:10:18.881Z,18.99
2018-02-15T02:11:28.374Z,18.99
2018-02-15T02:12:37.599Z,19.02
2018-02-15T02:13:46.553Z,19.06
2018-02-15T02:14:55.240Z,18.99
2018-02-15T02:16:04.201Z,19.06
2018-02-15T02:17:13.153Z,19
2018-02-15T02:18:21.843Z,19.07
2018-02-15T02:19:30.796Z,19.06
2018-02-15T02:20:39.751Z,19.07
2018-02-15T02:21:48.442Z,19.07
2018-02-15T02:22:57.127Z,19.08
2018-02-15T02:24:06.080Z,19.04
2018-02-15T02:25:15.041Z,18.99
2018-02-15T02:26:24.257Z,19.13
2018-02-15T02:27:32.944Z,19.02
2018-02-15T02:28:41.633Z,19.1
2018-02-15T02:29:50.326Z,19.02
2018-02-15T02:30:59.283Z,19
2018-02-15T02:32:08.777Z,19.04
2018-02-15T02:33:17.734Z,19.02
2018-02-15T02:34:26.424Z,18.99
2018-02-15T02:35:35.382Z,18.98
2018-02-15T02:36:44.878Z,19.02
2018-02-15T02:37:54.375Z,19.06
2018-02-15T02:39:03.336Z,19
2018-02-15T02:40:12.293Z,18.98
2018-02-15T02:41:21.537Z,18.95
2018-02-15T02:42:30.222Z,18.91
2018-02-15T02:43:39.176Z,19.02
2018-02-15T02:44:48.134Z,18.92
2018-02-15T02:45:57.087Z,18.9
2018-02-15T02:47:05.783Z,19
2018-02-15T02:48:15.014Z,19.02
2018-02-15T02:49:24.240Z,18.99
2018-02-15T02:50:32.928Z,19.06
2018-02-15T02:51:42.418Z,18.95
2018-02-15T02:52:51.914Z,18.94
2018-02-15T02:54:01.148Z,18.88
2018-02-15T02:55:09.835Z,19.06
2018-02-15T02:56:18.801Z,18.94
2018-02-15T02:57:27.480Z,18.94
2018-02-15T02:58:36.172Z,18.95
2018-02-15T02:59:45.124Z,19.02
2018-02-15T03:00:54.081Z,19.04
2018-02-15T03:02:03.308Z,19.04
2018-02-15T03:03:12.529Z,19.07
2018-02-15T03:04:21.219Z,18.92
2018-02-15T03:05:29.909Z,18.94
2018-02-15T03:06:38.596Z,18.98
2018-02-15T03:07:47.555Z,19.08
2018-02-15T03:08:56.509Z,19
2018-02-15T03:10:05.198Z,18.88
2018-02-15T03:11:13.884Z,18.99
2018-02-15T03:12:23.372Z,19.04
2018-02-15T03:13:32.332Z,18.95
2018-02-15T03:14:41.295Z,18.88
2018-02-15T03:15:50.510Z,18.95
2018-02-15T03:16:59.464Z,18.95
2018-02-15T03:18:08.417Z,18.99
2018-02-15T03:19:17.638Z,18.98
2018-02-15T03:20:26.595Z,18.91
2018-02-15T03:21:35.280Z,18.92
2018-02-15T03:22:44.506Z,18.88
2018-02-15T03:23:53.457Z,18.91
2018-02-15T03:25:02.675Z,18.95
2018-02-15T03:26:11.631Z,18.91
2018-02-15T03:27:20.318Z,18.91
2018-02-15T03:28:29.538Z,18.94
2018-02-15T03:29:38.497Z,18.88
2018-02-15T03:30:47.452Z,18.94
2018-02-15T03:31:56.408Z,18.9
2018-02-15T03:33:05.910Z,18.92
2018-02-15T03:34:14.880Z,18.94
2018-02-15T03:35:23.837Z,18.91
2018-02-15T03:36:33.069Z,18.88
2018-02-15T03:37:41.758Z,18.91
2018-02-15T03:38:50.977Z,18.91
2018-02-15T03:39:59.928Z,18.92
2018-02-15T03:41:09.153Z,18.9
2018-02-15T03:42:18.104Z,18.92
2018-02-15T03:43:26.792Z,18.91
2018-02-15T03:44:36.015Z,18.95
2018-02-15T03:45:45.241Z,18.91
2018-02-15T03:46:54.192Z,18.87
2018-02-15T03:48:03.143Z,18.76
2018-02-15T03:49:11.827Z,18.94
2018-02-15T03:50:20.786Z,18.85
2018-02-15T03:51:29.475Z,18.81
2018-02-15T03:52:38.165Z,18.85
2018-02-15T03:53:47.117Z,18.85
2018-02-15T03:54:56.337Z,18.91
2018-02-15T03:56:06.085Z,18.78
2018-02-15T03:57:15.296Z,18.8
2018-02-15T03:58:24.774Z,18.92
2018-02-15T03:59:33.720Z,18.91
2018-02-15T04:00:42.403Z,18.88
2018-02-15T04:01:51.081Z,18.84
2018-02-15T04:03:00.035Z,18.88
2018-02-15T04:04:08.981Z,18.8
2018-02-15T04:05:17.656Z,18.87
2018-02-15T04:06:26.607Z,18.81
2018-02-15T04:07:35.818Z,18.82
2018-02-15T04:08:45.039Z,18.81
2018-02-15T04:09:54.511Z,18.76
2018-02-15T04:11:03.190Z,18.82
2018-02-15T04:12:12.133Z,18.87
2018-02-15T04:13:20.814Z,18.8
2018-02-15T04:14:29.758Z,18.82
2018-02-15T04:15:38.700Z,18.78
2018-02-15T04:16:47.378Z,18.81
2018-02-15T04:17:56.324Z,18.84
2018-02-15T04:19:05.539Z,18.84
2018-02-15T04:20:14.484Z,18.85
2018-02-15T04:21:23.432Z,18.78
2018-02-15T04:22:32.642Z,18.81
2018-02-15T04:23:41.583Z,18.8
2018-02-15T04:24:50.532Z,18.8
2018-02-15T04:25:59.735Z,18.75
2018-02-15T04:27:08.944Z,18.88
2018-02-15T04:28:17.889Z,18.69
2018-02-15T04:29:27.098Z,18.82
2018-02-15T04:30:36.314Z,18.82
2018-02-15T04:31:44.992Z,18.85
2018-02-15T04:32:53.674Z,18.84
2018-02-15T04:34:02.350Z,18.8
2018-02-15T04:35:11.026Z,18.84
2018-02-15T04:36:19.970Z,18.88
2018-02-15T04:37:28.912Z,18.84
2018-02-15T04:38:37.589Z,18.85
2018-02-15T04:39:46.271Z,18.88
2018-02-15T04:40:54.945Z,18.84
2018-02-15T04:42:03.888Z,18.84
2018-02-15T04:43:12.875Z,18.81
2018-02-15T04:44:21.554Z,18.82
2018-02-15T04:45:30.769Z,18.8
2018-02-15T04:46:39.716Z,18.76
2018-02-15T04:47:48.394Z,18.8
2018-02-15T04:48:57.069Z,18.78
2018-02-15T04:50:06.011Z,18.84
2018-02-15T04:51:14.688Z,18.78
2018-02-15T04:52:23.367Z,18.81
2018-02-15T04:53:32.044Z,18.8
2018-02-15T04:54:40.984Z,18.75
2018-02-15T04:55:49.928Z,18.78
2018-02-15T04:56:59.408Z,18.78
2018-02-15T04:58:08.347Z,18.73
2018-02-15T04:59:17.027Z,18.84
2018-02-15T05:00:26.240Z,18.75
2018-02-15T05:01:35.190Z,18.75
2018-02-15T05:02:44.659Z,18.81
2018-02-15T05:03:53.872Z,18.75
2018-02-15T05:05:02.812Z,18.73
2018-02-15T05:06:12.024Z,18.75
2018-02-15T05:07:20.697Z,18.75
2018-02-15T05:08:29.641Z,18.81
2018-02-15T05:09:38.850Z,18.81
2018-02-15T05:10:47.802Z,18.76
2018-02-15T05:11:56.747Z,18.81
2018-02-15T05:13:05.956Z,18.76
2018-02-15T05:14:15.174Z,18.82
2018-02-15T05:15:23.853Z,18.81
2018-02-15T05:16:32.790Z,18.72
2018-02-15T05:17:41.730Z,18.84
2018-02-15T05:18:50.410Z,18.76
2018-02-15T05:19:59.095Z,18.91
2018-02-15T05:21:08.058Z,18.82
2018-02-15T05:22:16.736Z,18.84
2018-02-15T05:23:26.480Z,18.84
2018-02-15T05:24:35.426Z,18.81
2018-02-15T05:25:44.104Z,18.85
2018-02-15T05:26:52.783Z,18.76
2018-02-15T05:28:01.459Z,18.81
2018-02-15T05:29:10.672Z,18.85
2018-02-15T05:30:19.351Z,18.85
2018-02-15T05:31:28.561Z,18.85
2018-02-15T05:32:37.241Z,18.92
2018-02-15T05:33:46.187Z,18.94
2018-02-15T05:34:54.867Z,18.87
2018-02-15T05:36:03.810Z,18.85
2018-02-15T05:37:12.750Z,18.91
2018-02-15T05:38:21.689Z,18.94
2018-02-15T05:39:30.366Z,18.9
2018-02-15T05:40:39.309Z,18.87
2018-02-15T05:41:47.986Z,18.95
2018-02-15T05:42:56.665Z,18.91
2018-02-15T05:44:05.343Z,18.95
2018-02-15T05:45:14.284Z,18.95
2018-02-15T05:46:22.967Z,18.99
2018-02-15T05:47:31.914Z,18.95
2018-02-15T05:48:41.124Z,18.91
2018-02-15T05:49:50.334Z,18.92
2018-02-15T05:50:59.012Z,19.02
2018-02-15T05:52:08.221Z,18.99
2018-02-15T05:53:17.434Z,19.06
2018-02-15T05:54:26.643Z,18.99
2018-02-15T05:55:35.851Z,19.07
2018-02-15T05:56:45.326Z,18.95
2018-02-15T05:57:54.533Z,19.02
2018-02-15T05:59:03.475Z,19.08
2018-02-15T06:00:12.419Z,19.06
2018-02-15T06:01:21.455Z,19.13
2018-02-15T06:02:30.243Z,19.07
2018-02-15T06:03:38.916Z,18.99
2018-02-15T06:04:48.126Z,19.07
2018-02-15T06:05:57.076Z,18.99
2018-02-15T06:07:06.297Z,19.06
2018-02-15T06:08:14.974Z,19.06
2018-02-15T06:09:23.660Z,19.02
2018-02-15T06:10:32.605Z,18.99
2018-02-15T06:11:41.276Z,19.06
2018-02-15T06:12:49.953Z,18.94
2018-02-15T06:13:58.638Z,18.95
2018-02-15T06:15:07.316Z,18.92
2018-02-15T06:16:16.260Z,18.99
2018-02-15T06:17:25.471Z,18.98
2018-02-15T06:18:34.416Z,18.92
2018-02-15T06:19:43.096Z,18.95
2018-02-15T06:20:52.570Z,18.87
2018-02-15T06:22:01.255Z,18.66
2018-02-15T06:23:10.730Z,18.52
2018-02-15T06:24:19.675Z,18.33
2018-02-15T06:25:28.893Z,18.39
2018-02-15T06:26:37.835Z,18.33
2018-02-15T06:27:46.517Z,18.48
2018-02-15T06:28:55.195Z,18.47
2018-02-15T06:30:03.876Z,18.51
2018-02-15T06:31:12.820Z,18.57
2018-02-15T06:32:53.843Z,18.5
2018-02-15T06:34:02.788Z,18.57
2018-02-15T06:35:11.470Z,18.65
2018-02-15T06:36:20.188Z,18.6
2018-02-15T06:37:29.370Z,18.65
2018-02-15T06:38:38.048Z,18.65
2018-02-15T06:39:46.992Z,18.69
2018-02-15T06:40:55.671Z,18.7
2018-02-15T06:42:04.628Z,18.65
2018-02-15T06:43:13.566Z,18.69
2018-02-15T06:44:22.773Z,18.72
2018-02-15T06:45:31.714Z,18.76
2018-02-15T06:46:40.654Z,18.73
2018-02-15T06:47:49.600Z,18.78
2018-02-15T06:48:58.543Z,18.81
2018-02-15T06:50:07.220Z,18.82
2018-02-15T06:51:16.429Z,18.82
2018-02-15T06:52:25.637Z,18.82
2018-02-15T06:53:34.312Z,18.81
2018-02-15T06:54:43.258Z,18.84
2018-02-15T06:55:52.205Z,18.81
2018-02-15T06:57:00.887Z,18.91
2018-02-15T06:58:09.563Z,18.85
2018-02-15T06:59:18.507Z,18.82
2018-02-15T07:00:27.713Z,18.84
2018-02-15T07:01:36.918Z,18.81
2018-02-15T07:02:45.862Z,18.92
2018-02-15T07:03:54.803Z,18.9
2018-02-15T07:05:03.484Z,18.81
2018-02-15T07:06:12.160Z,18.92
2018-02-15T07:07:21.100Z,18.94
2018-02-15T07:08:29.776Z,18.9
2018-02-15T07:09:38.986Z,18.95
2018-02-15T07:10:47.936Z,18.9
2018-02-15T07:11:56.917Z,18.92
2018-02-15T07:13:05.833Z,18.92
2018-02-15T07:14:14.775Z,18.9
2018-02-15T07:15:23.723Z,18.88
2018-02-15T07:16:32.669Z,18.88
2018-02-15T07:17:41.623Z,18.92
2018-02-15T07:18:50.561Z,18.9
2018-02-15T07:19:59.240Z,18.94
2018-02-15T07:21:07.921Z,18.88
2018-02-15T07:22:17.422Z,18.92
2018-02-15T07:23:26.348Z,18.94
2018-02-15T07:24:35.026Z,18.87
2018-02-15T07:25:43.973Z,18.92
2018-02-15T07:26:52.653Z,18.95
2018-02-15T07:28:01.597Z,18.94
2018-02-15T07:29:10.806Z,18.92
2018-02-15T07:30:19.748Z,18.88
2018-02-15T07:31:28.694Z,18.95
2018-02-15T07:32:37.370Z,18.9
2018-02-15T07:33:46.313Z,18.9
2018-02-15T07:34:55.259Z,18.92
2018-02-15T07:36:04.464Z,18.98
2018-02-15T07:37:13.410Z,18.99
2018-02-15T07:38:22.351Z,18.92
2018-02-15T07:39:31.028Z,18.94
2018-02-15T07:40:39.976Z,18.99
2018-02-15T07:41:48.916Z,18.94
2018-02-15T07:42:57.595Z,18.9
2018-02-15T07:44:06.804Z,18.92
2018-02-15T07:45:15.481Z,18.94
2018-02-15T07:46:24.424Z,18.95
2018-02-15T07:47:33.366Z,18.91
2018-02-15T07:48:42.580Z,18.94
2018-02-15T07:49:51.523Z,18.94
2018-02-15T07:51:00.460Z,18.92
2018-02-15T07:52:09.140Z,18.92
2018-02-15T07:53:18.351Z,18.88
2018-02-15T07:54:27.296Z,18.88
2018-02-15T07:55:35.972Z,18.91
2018-02-15T07:56:44.648Z,18.95
2018-02-15T07:57:53.853Z,18.99
2018-02-15T07:59:02.798Z,18.9
2018-02-15T08:00:11.741Z,18.99
2018-02-15T08:01:20.948Z,18.87
2018-02-15T08:02:30.158Z,18.94
2018-02-15T08:03:39.101Z,18.91
2018-02-15T08:04:47.778Z,18.95
2018-02-15T08:05:56.455Z,18.91
2018-02-15T08:07:05.398Z,18.94
2018-02-15T08:08:14.618Z,18.94
2018-02-15T08:09:23.296Z,18.94
2018-02-15T08:10:32.765Z,18.94
2018-02-15T08:11:41.706Z,18.95
2018-02-15T08:12:50.655Z,18.94
2018-02-15T08:13:59.867Z,18.84
2018-02-15T08:15:09.075Z,18.94
2018-02-15T08:16:18.281Z,18.9
2018-02-15T08:17:27.490Z,18.94
2018-02-15T08:18:36.431Z,18.88
2018-02-15T08:19:45.633Z,18.87
2018-02-15T08:20:54.383Z,18.92
2018-02-15T08:22:03.589Z,18.92
2018-02-15T08:23:12.529Z,18.91
2018-02-15T08:24:21.481Z,18.87
2018-02-15T08:25:30.153Z,18.81
2018-02-15T08:26:39.101Z,18.9
2018-02-15T08:27:47.782Z,18.92
2018-02-15T08:28:56.999Z,18.88
2018-02-15T08:30:05.946Z,18.92
2018-02-15T08:31:15.168Z,18.9
2018-02-15T08:32:24.113Z,18.87
2018-02-15T08:33:33.065Z,18.87
2018-02-15T08:34:41.743Z,18.84
2018-02-15T08:35:50.686Z,18.87
2018-02-15T08:36:59.636Z,18.8
2018-02-15T08:38:08.581Z,18.82
2018-02-15T08:39:17.523Z,18.82
2018-02-15T08:40:26.730Z,18.85
2018-02-15T08:41:35.674Z,18.82
2018-02-15T08:42:44.616Z,18.85
2018-02-15T08:43:53.325Z,18.81
2018-02-15T08:45:01.969Z,18.85
2018-02-15T08:46:11.182Z,18.81
2018-02-15T08:47:20.123Z,18.82
2018-02-15T08:48:29.068Z,18.8
2018-02-15T08:49:37.746Z,18.76
2018-02-15T08:50:46.424Z,18.8
2018-02-15T08:51:55.098Z,18.88
2018-02-15T08:53:03.777Z,18.8
2018-02-15T08:54:12.451Z,18.85
2018-02-15T08:55:21.928Z,18.8
2018-02-15T08:56:30.875Z,18.85
2018-02-15T08:57:39.555Z,18.87
2018-02-15T08:58:48.497Z,18.76
2018-02-15T08:59:57.166Z,18.87
2018-02-15T09:01:06.105Z,18.87
2018-02-15T09:02:14.783Z,18.84
2018-02-15T09:03:23.998Z,18.84
2018-02-15T09:04:32.941Z,18.87
2018-02-15T09:05:41.880Z,18.9
2018-02-15T09:06:51.105Z,18.84
2018-02-15T09:08:00.050Z,18.88
2018-02-15T09:09:08.992Z,18.84
2018-02-15T09:10:17.936Z,18.91
2018-02-15T09:11:26.878Z,18.84
2018-02-15T09:12:35.821Z,18.78
2018-02-15T09:13:44.763Z,18.87
2018-02-15T09:14:53.710Z,18.85
2018-02-15T09:16:02.652Z,18.82
2018-02-15T09:17:11.591Z,18.8
2018-02-15T09:18:20.533Z,18.87
2018-02-15T09:19:29.477Z,18.78
2018-02-15T09:20:38.691Z,18.85
2018-02-15T09:21:47.637Z,18.82
2018-02-15T09:22:56.313Z,18.84
2018-02-15T09:24:05.255Z,18.82
2018-02-15T09:25:14.199Z,18.81
2018-02-15T09:26:23.670Z,18.85
2018-02-15T09:27:32.351Z,18.85
2018-02-15T09:28:41.557Z,18.87
2018-02-15T09:29:50.502Z,18.76
2018-02-15T09:30:59.452Z,18.85
2018-02-15T09:32:08.392Z,18.87
2018-02-15T09:33:17.867Z,18.88
2018-02-15T09:34:26.544Z,18.75
2018-02-15T09:35:35.497Z,18.88
2018-02-15T09:36:44.440Z,18.82
2018-02-15T09:37:53.389Z,18.88
2018-02-15T09:39:02.599Z,18.78
2018-02-15T09:40:11.811Z,18.88
2018-02-15T09:41:20.758Z,18.84
2018-02-15T09:42:29.432Z,18.87
2018-02-15T09:43:38.379Z,18.88
2018-02-15T09:44:47.327Z,18.84
2018-02-15T09:45:56.268Z,18.82
2018-02-15T09:47:05.045Z,18.78
2018-02-15T09:48:13.962Z,18.88
2018-02-15T09:49:22.910Z,18.78
2018-02-15T09:50:31.849Z,18.87
2018-02-15T09:51:40.600Z,18.82
2018-02-15T09:52:49.280Z,18.88
2018-02-15T09:53:58.226Z,18.85
2018-02-15T09:55:06.905Z,18.87
2018-02-15T09:56:16.115Z,18.88
2018-02-15T09:57:24.797Z,18.76
2018-02-15T09:58:34.006Z,18.8
2018-02-15T09:59:43.248Z,18.85
2018-02-15T10:00:52.164Z,18.87
2018-02-15T10:02:00.841Z,18.82
2018-02-15T10:03:09.789Z,18.78
2018-02-15T10:04:18.730Z,18.75
2018-02-15T10:05:27.475Z,18.87
2018-02-15T10:06:36.955Z,18.81
2018-02-15T10:07:45.625Z,18.84
2018-02-15T10:08:54.580Z,18.8
2018-02-15T10:10:03.265Z,18.84
2018-02-15T10:11:11.944Z,18.87
2018-02-15T10:12:20.890Z,18.84
2018-02-15T10:13:30.106Z,18.76
2018-02-15T10:14:39.051Z,18.78
2018-02-15T10:15:47.998Z,18.78
2018-02-15T10:16:57.211Z,18.8
2018-02-15T10:18:06.422Z,18.73
2018-02-15T10:19:15.103Z,18.76
2018-02-15T10:20:24.310Z,18.81
2018-02-15T10:21:32.985Z,18.8
2018-02-15T10:22:41.928Z,18.8
2018-02-15T10:23:51.152Z,18.8
2018-02-15T10:25:00.360Z,18.73
2018-02-15T10:26:09.313Z,18.76
2018-02-15T10:27:18.254Z,18.82
2018-02-15T10:28:27.726Z,18.82
2018-02-15T10:29:36.403Z,18.84
2018-02-15T10:30:45.081Z,18.8
2018-02-15T10:31:54.561Z,18.81
2018-02-15T10:33:03.775Z,18.73
2018-02-15T10:34:12.451Z,18.81
2018-02-15T10:35:21.404Z,18.78
2018-02-15T10:36:30.343Z,18.73
2018-02-15T10:37:39.288Z,18.78
2018-02-15T10:38:48.497Z,18.78
2018-02-15T10:39:58.016Z,18.78
2018-02-15T10:41:07.198Z,18.73
2018-02-15T10:42:15.876Z,18.82
2018-02-15T10:43:24.554Z,18.81
2018-02-15T10:44:33.504Z,18.75
2018-02-15T10:45:42.180Z,18.81
2018-02-15T10:46:50.855Z,18.76
2018-02-15T10:47:59.795Z,18.73
2018-02-15T10:49:09.004Z,18.78
2018-02-15T10:50:17.681Z,18.78
2018-02-15T10:51:26.893Z,18.78
2018-02-15T10:52:35.834Z,18.78
2018-02-15T10:53:44.777Z,18.76
2018-02-15T10:54:53.985Z,18.8
2018-02-15T10:56:02.665Z,18.7
2018-02-15T10:57:11.610Z,18.76
2018-02-15T10:58:20.547Z,18.75
2018-02-15T10:59:29.496Z,18.7
2018-02-15T11:00:38.974Z,18.78
2018-02-15T11:01:47.916Z,18.69
2018-02-15T11:02:56.859Z,18.76
2018-02-15T11:04:05.807Z,18.72
2018-02-15T11:05:14.753Z,18.75
2018-02-15T11:06:23.433Z,18.76
2018-02-15T11:07:32.379Z,18.73
2018-02-15T11:08:41.056Z,18.76
2018-02-15T11:09:50.273Z,18.69
2018-02-15T11:10:59.218Z,18.78
2018-02-15T11:12:08.967Z,18.76
2018-02-15T11:13:17.911Z,18.75
2018-02-15T11:14:27.120Z,18.75
2018-02-15T11:15:36.061Z,18.78
2018-02-15T11:16:45.024Z,18.76
2018-02-15T11:17:53.967Z,18.78
2018-02-15T11:19:02.917Z,18.78
2018-02-15T11:20:12.127Z,18.78
2018-02-15T11:21:21.072Z,18.76
2018-02-15T11:22:30.019Z,18.81
2018-02-15T11:23:38.696Z,18.76
2018-02-15T11:24:47.908Z,18.87
2018-02-15T11:25:56.852Z,18.8
2018-02-15T11:27:05.534Z,18.84
2018-02-15T11:28:14.209Z,18.8
2018-02-15T11:29:22.884Z,18.78
2018-02-15T11:30:31.824Z,18.78
2018-02-15T11:31:40.764Z,18.82
2018-02-15T11:32:49.447Z,18.88
2018-02-15T11:33:58.125Z,18.88
2018-02-15T11:35:07.331Z,18.9
2018-02-15T11:36:16.277Z,18.91
2018-02-15T11:37:24.952Z,18.87
2018-02-15T11:38:33.895Z,18.9
2018-02-15T11:39:42.569Z,18.95
2018-02-15T11:40:51.513Z,18.9
2018-02-15T11:42:00.458Z,19
2018-02-15T11:43:09.396Z,18.95
2018-02-15T11:44:18.338Z,19
2018-02-15T11:45:27.811Z,19.07
2018-02-15T11:46:36.490Z,18.95
2018-02-15T11:47:45.168Z,18.98
2018-02-15T11:48:54.108Z,18.98
2018-02-15T11:50:03.052Z,18.9
2018-02-15T11:51:11.994Z,19.04
2018-02-15T11:52:21.466Z,18.94
2018-02-15T11:53:30.414Z,19.02
2018-02-15T11:54:39.093Z,18.98
2018-02-15T11:55:48.039Z,19
2018-02-15T11:56:56.719Z,18.92
2018-02-15T11:58:05.397Z,18.95
2018-02-15T11:59:14.335Z,19.06
2018-02-15T12:00:23.277Z,19
2018-02-15T12:01:32.488Z,19.04
2018-02-15T12:02:41.428Z,18.92
2018-02-15T12:03:50.372Z,19
2018-02-15T12:04:59.048Z,18.92
2018-02-15T12:06:07.726Z,19
2018-02-15T12:07:16.670Z,18.95
2018-02-15T12:08:25.346Z,18.95
2018-02-15T12:09:34.292Z,19.1
2018-02-15T12:10:42.970Z,19.02
2018-02-15T12:11:52.190Z,19
2018-02-15T12:13:01.664Z,19.07
2018-02-15T12:14:10.869Z,19.02
2018-02-15T12:15:19.813Z,18.99
2018-02-15T12:16:28.493Z,19
2018-02-15T12:17:37.442Z,18.98
2018-02-15T12:18:46.382Z,19.06
2018-02-15T12:19:55.325Z,18.94
2018-02-15T12:21:04.001Z,18.95
2018-02-15T12:22:13.259Z,19.08
2018-02-15T12:23:22.463Z,18.95
2018-02-15T12:24:31.673Z,18.98
2018-02-15T12:25:41.156Z,18.99
2018-02-15T12:26:50.097Z,18.87
2018-02-15T12:27:58.776Z,18.7
2018-02-15T12:29:07.455Z,18.51
2018-02-15T12:30:16.684Z,18.44
2018-02-15T12:31:25.361Z,18.54
2018-02-15T12:32:34.309Z,18.57
2018-02-15T12:33:42.988Z,18.54
2018-02-15T12:34:52.194Z,18.5
2018-02-15T12:36:00.876Z,18.54
2018-02-15T12:37:09.818Z,18.5
2018-02-15T12:38:19.078Z,18.58
2018-02-15T12:39:27.708Z,18.52
2018-02-15T12:40:36.383Z,18.57
2018-02-15T12:41:45.064Z,18.57
2018-02-15T12:42:54.008Z,18.65
2018-02-15T12:44:03.213Z,18.67
2018-02-15T12:45:12.420Z,18.72
2018-02-15T12:46:21.100Z,18.67
2018-02-15T12:47:30.046Z,18.73
2018-02-15T12:48:38.989Z,18.66
2018-02-15T12:49:47.932Z,18.76
2018-02-15T12:50:56.609Z,18.78
2018-02-15T12:52:05.287Z,18.7
2018-02-15T12:53:14.230Z,18.84
2018-02-15T12:54:22.914Z,18.8
2018-02-15T12:55:31.856Z,18.75
2018-02-15T12:56:40.535Z,18.85
2018-02-15T12:57:49.217Z,18.87
2018-02-15T12:58:58.158Z,18.8
2018-02-15T13:00:06.837Z,18.8
2018-02-15T13:01:15.788Z,18.84
2018-02-15T13:02:25.460Z,18.8
2018-02-15T13:03:34.668Z,18.88
2018-02-15T13:04:43.344Z,18.88
2018-02-15T13:05:52.587Z,18.82
2018-02-15T13:07:01.538Z,18.81
2018-02-15T13:08:10.219Z,18.92
2018-02-15T13:09:18.894Z,18.91
2018-02-15T13:10:28.104Z,18.88
2018-02-15T13:11:37.047Z,18.92
2018-02-15T13:12:46.528Z,18.88
2018-02-15T13:13:55.744Z,18.92
2018-02-15T13:15:05.227Z,18.92
2018-02-15T13:16:13.905Z,18.88
2018-02-15T13:17:22.847Z,18.73
2018-02-15T13:18:31.794Z,18.65
2018-02-15T13:19:41.007Z,18.55
2018-02-15T13:20:49.950Z,18.52
2018-02-15T13:21:59.161Z,18.48
2018-02-15T13:23:08.104Z,18.32
2018-02-15T13:24:16.781Z,18.2
2018-02-15T13:25:25.460Z,18.21
2018-02-15T13:26:34.136Z,18.26
2018-02-15T13:27:42.809Z,18.2
2018-02-15T13:28:51.833Z,18.25
2018-02-15T13:30:00.511Z,18.18
2018-02-15T13:31:09.460Z,18.18
2018-02-15T13:32:18.401Z,18.21
2018-02-15T13:33:27.088Z,18.32
2018-02-15T13:34:36.073Z,18.35
2018-02-15T13:35:44.755Z,18.36
2018-02-15T13:36:54.234Z,18.36
2018-02-15T13:38:03.177Z,18.39
2018-02-15T13:39:11.856Z,18.51
2018-02-15T13:40:21.066Z,18.42
2018-02-15T13:41:30.281Z,18.47
2018-02-15T13:42:39.228Z,18.45
2018-02-15T13:43:47.911Z,18.54
2018-02-15T13:44:56.853Z,18.5
2018-02-15T13:46:06.062Z,18.55
2018-02-15T13:47:14.739Z,18.5
2018-02-15T13:48:23.679Z,18.54
2018-02-15T13:49:33.031Z,18.55
2018-02-15T13:50:42.826Z,18.63
2018-02-15T13:51:51.889Z,18.62
2018-02-15T13:53:01.104Z,18.58
2018-02-15T13:54:09.781Z,18.66
2018-02-15T13:55:18.731Z,18.63
2018-02-15T13:56:27.409Z,18.65
2018-02-15T13:57:36.625Z,18.7
2018-02-15T13:58:45.565Z,18.66
2018-02-15T13:59:54.304Z,18.66
2018-02-15T14:01:03.250Z,18.67
2018-02-15T14:02:12.190Z,18.76
2018-02-15T14:03:21.672Z,18.7
2018-02-15T14:04:30.882Z,18.7
2018-02-15T14:05:39.558Z,18.7
2018-02-15T14:06:48.235Z,18.67
2018-02-15T14:07:57.181Z,18.8
2018-02-15T14:09:05.855Z,18.78
2018-02-15T14:10:14.530Z,18.81
2018-02-15T14:11:23.742Z,18.75
2018-02-15T14:12:32.419Z,18.82
2018-02-15T14:13:41.095Z,18.76
2018-02-15T14:14:49.777Z,18.75
2018-02-15T14:15:58.722Z,18.8
2018-02-15T14:17:07.401Z,18.82
2018-02-15T14:18:16.878Z,18.75
2018-02-15T14:19:25.822Z,18.87
2018-02-15T14:20:34.498Z,18.84
2018-02-15T14:21:43.717Z,18.8
2018-02-15T14:22:52.932Z,18.76
2018-02-15T14:24:01.613Z,18.84
2018-02-15T14:25:10.292Z,18.87
2018-02-15T14:26:19.502Z,18.82
2018-02-15T14:27:28.195Z,18.88
2018-02-15T14:28:37.417Z,18.85
2018-02-15T14:29:46.091Z,18.82
2018-02-15T14:30:54.768Z,18.8
2018-02-15T14:32:03.443Z,18.76
2018-02-15T14:33:12.118Z,18.67
2018-02-15T14:34:21.065Z,18.6
2018-02-15T14:35:30.021Z,18.65
2018-02-15T14:36:39.229Z,18.54
2018-02-15T14:37:48.173Z,18.58
2018-02-15T14:38:56.851Z,18.5
2018-02-15T14:40:06.063Z,18.42
2018-02-15T14:41:15.271Z,18.41
2018-02-15T14:42:23.952Z,18.52
2018-02-15T14:43:32.894Z,18.5
2018-02-15T14:44:41.571Z,18.45
2018-02-15T14:45:50.518Z,18.41
2018-02-15T14:46:59.194Z,18.41
2018-02-15T14:48:08.665Z,18.42
2018-02-15T14:49:17.340Z,18.33
2018-02-15T14:50:26.018Z,18.35
2018-02-15T14:51:34.958Z,18.36
2018-02-15T14:52:43.640Z,18.35